createdAt,value
2023-06-12T00:00:53.991Z,1.30
2023-06-12T00:03:44.179Z,1.20
2023-06-12T00:06:12.647Z,1.10
2023-06-12T00:08:44.316Z,1.30
2023-06-12T00:11:14.330Z,1.10
2023-06-12T00:13:45.270Z,1.00
2023-06-12T00:16:13.169Z,1.20
2023-06-12T00:18:41.467Z,1.10
2023-06-12T00:21:10.975Z,1.00
2023-06-12T00:23:40.683Z,1.10
2023-06-12T00:26:10.354Z,1.10
2023-06-12T00:28:39.786Z,1.20
2023-06-12T00:31:07.802Z,1.00
2023-06-12T00:33:35.935Z,1.00
2023-06-12T00:36:04.407Z,1.00
2023-06-12T00:38:33.979Z,0.80
2023-06-12T00:41:01.995Z,1.00
2023-06-12T00:43:33.031Z,1.20
2023-06-12T00:46:12.071Z,0.70
2023-06-12T00:48:42.033Z,0.90
2023-06-12T00:51:10.672Z,1.00
2023-06-12T00:53:38.609Z,0.90
2023-06-12T00:56:06.460Z,0.60
2023-06-12T00:58:36.040Z,1.00
2023-06-12T01:01:04.622Z,0.90
2023-06-12T01:03:33.450Z,1.00
2023-06-12T01:06:06.329Z,0.90
2023-06-12T01:08:56.297Z,0.70
2023-06-12T01:11:25.739Z,1.00
2023-06-12T01:13:53.887Z,0.80
2023-06-12T01:16:21.906Z,0.80
2023-06-12T01:18:51.453Z,0.80
2023-06-12T01:24:26.520Z,0.70
2023-06-12T01:27:09.930Z,0.90
2023-06-12T01:29:47.562Z,0.80
2023-06-12T01:32:17.261Z,0.90
2023-06-12T01:34:55.468Z,0.80
2023-06-12T01:37:47.248Z,0.70
2023-06-12T01:40:23.692Z,0.60
2023-06-12T01:42:54.094Z,0.90
2023-06-12T01:45:22.156Z,0.90
2023-06-12T01:47:50.128Z,0.70
2023-06-12T01:50:20.836Z,0.70
2023-06-12T01:52:50.888Z,0.90
2023-06-12T01:55:20.642Z,1.10
2023-06-12T02:00:24.170Z,1.10
2023-06-12T02:05:30.149Z,0.90
2023-06-12T02:07:57.945Z,1.00
2023-06-12T02:10:27.043Z,0.80
2023-06-12T02:12:55.354Z,1.00
2023-06-12T02:15:23.693Z,1.10
2023-06-12T02:17:52.476Z,1.10
2023-06-12T02:20:23.146Z,1.00
2023-06-12T02:22:51.083Z,1.00
2023-06-12T02:25:20.162Z,1.20
2023-06-12T02:27:49.645Z,1.10
2023-06-12T02:30:20.570Z,1.00
2023-06-12T02:32:53.722Z,1.10
2023-06-12T02:35:22.258Z,1.00
2023-06-12T02:37:50.356Z,1.00
2023-06-12T02:40:18.282Z,1.00
2023-06-12T02:42:47.477Z,0.90
2023-06-12T02:45:15.611Z,1.00
2023-06-12T02:47:43.866Z,1.10
2023-06-12T02:50:12.811Z,1.00
2023-06-12T02:52:49.535Z,1.00
2023-06-12T02:55:19.778Z,1.10
2023-06-12T02:57:49.286Z,1.00
2023-06-12T03:00:17.512Z,1.00
2023-06-12T03:05:27.120Z,0.70
2023-06-12T03:07:59.222Z,1.00
2023-06-12T03:13:01.700Z,1.10
2023-06-12T03:15:31.422Z,1.20
2023-06-12T03:18:01.642Z,1.00
2023-06-12T03:20:35.861Z,1.10
2023-06-12T03:23:07.625Z,0.70
2023-06-12T03:25:37.546Z,1.00
2023-06-12T03:28:07.681Z,0.90
2023-06-12T03:30:37.307Z,1.10
2023-06-12T03:33:12.113Z,0.90
2023-06-12T03:35:42.980Z,1.00
2023-06-12T03:38:12.659Z,0.90
2023-06-12T03:40:44.425Z,1.20
2023-06-12T03:43:12.511Z,0.80
2023-06-12T03:45:43.013Z,0.80
2023-06-12T03:48:11.542Z,0.80
2023-06-12T03:50:42.553Z,1.00
2023-06-12T03:53:15.387Z,1.00
2023-06-12T03:55:43.561Z,0.80
2023-06-12T03:58:18.657Z,0.60
2023-06-12T04:00:49.766Z,0.80
2023-06-12T04:03:22.508Z,0.70
2023-06-12T04:05:52.093Z,0.80
2023-06-12T04:08:21.656Z,0.90
2023-06-12T04:10:49.536Z,0.90
2023-06-12T04:13:17.516Z,0.80
2023-06-12T04:15:45.797Z,0.80
2023-06-12T04:18:15.344Z,0.80
2023-06-12T04:20:43.216Z,0.80
2023-06-12T04:23:12.817Z,1.20
2023-06-12T04:25:44.100Z,1.00
2023-06-12T04:28:18.276Z,0.70
2023-06-12T04:30:46.783Z,0.90
2023-06-12T04:33:16.285Z,0.60
2023-06-12T04:35:47.288Z,0.70
2023-06-12T04:38:16.739Z,0.80
2023-06-12T04:40:45.433Z,0.80
2023-06-12T04:43:13.443Z,0.70
2023-06-12T04:45:45.602Z,0.70
2023-06-12T04:48:13.721Z,0.90
2023-06-12T04:50:42.693Z,0.50
2023-06-12T04:53:10.610Z,0.80
2023-06-12T04:55:39.658Z,0.80
2023-06-12T04:58:07.665Z,0.60
2023-06-12T05:00:35.957Z,0.70
2023-06-12T05:03:04.072Z,0.70
2023-06-12T05:05:32.092Z,0.80
2023-06-12T05:08:00.117Z,0.50
2023-06-12T05:10:28.082Z,0.80
2023-06-12T05:12:56.369Z,0.70
2023-06-12T05:15:24.471Z,0.50
2023-06-12T05:17:52.400Z,0.60
2023-06-12T05:20:20.710Z,0.30
2023-06-12T05:22:49.146Z,0.90
2023-06-12T05:25:17.402Z,0.80
2023-06-12T05:27:45.999Z,1.20
2023-06-12T05:30:14.195Z,1.10
2023-06-12T05:32:43.062Z,1.10
2023-06-12T05:35:11.517Z,0.80
2023-06-12T05:37:39.530Z,0.80
2023-06-12T05:40:10.338Z,0.70
2023-06-12T05:42:39.034Z,0.60
2023-06-12T05:45:08.058Z,0.70
2023-06-12T05:47:37.384Z,1.10
2023-06-12T05:50:06.020Z,0.50
2023-06-12T05:52:35.213Z,0.70
2023-06-12T05:55:09.242Z,0.70
2023-06-12T05:57:37.834Z,0.70
2023-06-12T06:00:08.177Z,0.70
2023-06-12T06:02:46.595Z,0.70
2023-06-12T06:05:31.407Z,0.70
2023-06-12T06:08:02.280Z,0.80
2023-06-12T06:10:30.935Z,0.80
2023-06-12T06:12:59.372Z,0.60
2023-06-12T06:15:27.933Z,0.90
2023-06-12T06:17:56.158Z,1.10
2023-06-12T06:20:24.805Z,0.90
2023-06-12T06:22:53.135Z,1.00
2023-06-12T06:25:21.796Z,0.60
2023-06-12T06:27:50.143Z,0.90
2023-06-12T06:30:18.737Z,0.90
2023-06-12T06:32:48.065Z,1.30
2023-06-12T06:35:17.292Z,0.80
2023-06-12T06:37:45.809Z,0.90
2023-06-12T06:40:16.004Z,0.70
2023-06-12T06:42:44.828Z,0.70
2023-06-12T06:45:16.899Z,0.70
2023-06-12T06:47:45.034Z,0.90
2023-06-12T06:50:13.838Z,1.10
2023-06-12T06:52:42.436Z,0.90
2023-06-12T06:55:11.379Z,1.10
2023-06-12T06:57:39.834Z,1.10
2023-06-12T07:00:09.718Z,1.30
2023-06-12T07:02:39.968Z,1.50
2023-06-12T07:05:09.185Z,1.20
2023-06-12T07:07:52.227Z,1.60
2023-06-12T07:10:27.854Z,1.00
2023-06-12T07:12:59.364Z,1.30
2023-06-12T07:15:33.769Z,1.00
2023-06-12T07:18:01.984Z,1.30
2023-06-12T07:20:30.127Z,0.80
2023-06-12T07:22:58.218Z,1.70
2023-06-12T07:25:26.182Z,2.00
2023-06-12T07:27:55.116Z,0.90
2023-06-12T07:30:23.041Z,1.00
2023-06-12T07:32:51.173Z,0.80
2023-06-12T07:35:19.785Z,1.00
2023-06-12T07:37:48.074Z,1.30
2023-06-12T07:40:16.732Z,0.90
2023-06-12T07:42:45.734Z,1.10
2023-06-12T07:45:14.001Z,1.20
2023-06-12T07:47:44.089Z,1.20
2023-06-12T07:50:13.289Z,1.10
2023-06-12T07:52:41.566Z,0.90
2023-06-12T07:55:10.385Z,1.10
2023-06-12T07:57:38.906Z,0.90
2023-06-12T08:00:08.881Z,1.00
2023-06-12T08:02:56.532Z,2.10
2023-06-12T08:05:28.993Z,1.50
2023-06-12T08:07:59.553Z,1.90
2023-06-12T08:10:30.217Z,1.10
2023-06-12T08:12:58.115Z,1.00
2023-06-12T08:15:26.839Z,1.20
2023-06-12T08:17:55.603Z,1.20
2023-06-12T08:20:23.944Z,1.00
2023-06-12T08:22:57.021Z,1.20
2023-06-12T08:25:27.375Z,1.40
2023-06-12T08:27:58.467Z,1.00
2023-06-12T08:30:28.342Z,1.20
2023-06-12T08:32:57.230Z,1.00
2023-06-12T08:35:25.210Z,1.30
2023-06-12T08:37:53.270Z,1.00
2023-06-12T08:40:21.519Z,0.90
2023-06-12T08:42:53.026Z,1.20
2023-06-12T08:45:27.194Z,0.90
2023-06-12T08:47:56.808Z,1.20
2023-06-12T08:50:25.777Z,1.20
2023-06-12T08:52:54.428Z,1.10
2023-06-12T08:55:23.366Z,0.80
2023-06-12T08:57:52.342Z,0.90
2023-06-12T09:00:21.202Z,0.90
2023-06-12T09:02:53.130Z,0.90
2023-06-12T09:05:27.617Z,1.10
2023-06-12T09:07:58.218Z,1.20
2023-06-12T09:10:28.150Z,1.00
2023-06-12T09:12:57.274Z,0.90
2023-06-12T09:15:26.885Z,1.20
2023-06-12T09:17:57.100Z,1.10
2023-06-12T09:20:42.425Z,1.10
2023-06-12T09:23:14.320Z,1.10
2023-06-12T09:25:55.401Z,1.10
2023-06-12T09:28:38.606Z,1.20
2023-06-12T09:31:07.286Z,1.00
2023-06-12T09:33:40.919Z,1.00
2023-06-12T09:36:12.742Z,1.40
2023-06-12T09:38:40.760Z,1.50
2023-06-12T09:41:12.196Z,1.50
2023-06-12T09:43:40.325Z,1.30
2023-06-12T09:46:09.893Z,1.10
2023-06-12T09:48:40.003Z,1.50
2023-06-12T09:51:09.961Z,1.10
2023-06-12T09:53:41.383Z,1.10
2023-06-12T09:56:10.749Z,1.20
2023-06-12T09:58:42.359Z,1.10
2023-06-12T10:01:10.427Z,1.00
2023-06-12T10:03:42.804Z,0.90
2023-06-12T10:06:13.991Z,1.00
2023-06-12T10:08:42.444Z,1.30
2023-06-12T10:11:11.731Z,1.10
2023-06-12T10:13:40.749Z,1.10
2023-06-12T10:16:09.438Z,0.90
2023-06-12T10:18:41.040Z,1.10
2023-06-12T10:21:08.960Z,1.30
2023-06-12T10:23:38.252Z,1.20
2023-06-12T10:26:07.139Z,1.30
2023-06-12T10:28:35.297Z,1.20
2023-06-12T10:31:19.230Z,1.00
2023-06-12T10:34:03.979Z,1.20
2023-06-12T10:36:46.185Z,1.20
2023-06-12T10:39:25.624Z,1.10
2023-06-12T10:41:56.860Z,1.20
2023-06-12T10:44:32.046Z,1.20
2023-06-12T10:47:05.385Z,1.30
2023-06-12T10:50:03.232Z,1.00
2023-06-12T10:52:31.368Z,1.20
2023-06-12T10:55:18.835Z,1.20
2023-06-12T10:57:58.302Z,1.10
2023-06-12T11:00:36.030Z,1.00
2023-06-12T11:03:08.508Z,1.60
2023-06-12T11:05:37.532Z,1.80
2023-06-12T11:08:07.919Z,1.80
2023-06-12T11:10:36.758Z,1.80
2023-06-12T11:13:05.192Z,1.30
2023-06-12T11:15:42.885Z,1.20
2023-06-12T11:18:11.802Z,1.30
2023-06-12T11:20:40.458Z,1.20
2023-06-12T11:23:09.253Z,1.20
2023-06-12T11:25:56.079Z,1.20
2023-06-12T11:28:27.260Z,1.60
2023-06-12T11:33:27.090Z,1.60
2023-06-12T11:35:59.894Z,1.20
2023-06-12T11:40:58.750Z,1.40
2023-06-12T11:43:28.106Z,2.00
2023-06-12T11:45:57.513Z,1.70
2023-06-12T11:50:56.845Z,1.80
2023-06-12T11:53:24.896Z,1.90
2023-06-12T11:58:48.490Z,2.00
2023-06-12T12:01:25.011Z,2.20
2023-06-12T12:03:58.715Z,2.20
2023-06-12T12:06:28.173Z,2.20
2023-06-12T12:08:57.664Z,1.90
2023-06-12T12:11:31.646Z,1.60
2023-06-12T12:14:06.452Z,1.90
2023-06-12T12:16:45.381Z,2.00
2023-06-12T12:19:27.239Z,2.00
2023-06-12T12:21:59.256Z,2.10
2023-06-12T12:24:27.848Z,2.00
2023-06-12T12:26:55.945Z,2.40
2023-06-12T12:29:23.976Z,2.40
2023-06-12T12:31:52.099Z,2.50
2023-06-12T12:34:22.009Z,2.40
2023-06-12T12:36:50.571Z,2.10
2023-06-12T12:39:18.737Z,2.50
2023-06-12T12:41:46.785Z,2.50
2023-06-12T12:44:14.795Z,2.20
2023-06-12T12:46:42.703Z,2.30
2023-06-12T12:49:12.270Z,2.40
2023-06-12T12:51:45.413Z,2.20
2023-06-12T12:54:17.033Z,2.30
2023-06-12T12:56:48.335Z,2.40
2023-06-12T12:59:17.332Z,2.40
2023-06-12T13:01:45.851Z,2.20
2023-06-12T13:04:16.273Z,2.20
2023-06-12T13:06:45.111Z,2.10
2023-06-12T13:09:13.037Z,2.20
2023-06-12T13:11:40.976Z,1.90
2023-06-12T13:14:10.815Z,2.20
2023-06-12T13:16:38.885Z,2.30
2023-06-12T13:19:06.771Z,2.30
2023-06-12T13:21:35.403Z,2.20
2023-06-12T13:24:03.256Z,1.90
2023-06-12T13:26:32.232Z,2.10
2023-06-12T13:29:00.020Z,2.50
2023-06-12T13:31:28.565Z,2.50
2023-06-12T13:33:56.591Z,2.20
2023-06-12T13:36:24.599Z,2.40
2023-06-12T13:38:52.484Z,2.50
2023-06-12T13:41:21.590Z,2.40
2023-06-12T13:43:49.493Z,2.30
2023-06-12T13:46:17.631Z,2.40
2023-06-12T13:48:45.728Z,2.30
2023-06-12T13:51:13.725Z,2.40
2023-06-12T13:53:42.040Z,2.40
2023-06-12T13:56:10.367Z,2.40
2023-06-12T13:58:38.184Z,2.40
2023-06-12T14:01:06.399Z,2.50
2023-06-12T14:03:34.483Z,2.30
2023-06-12T14:06:03.680Z,2.00
2023-06-12T14:08:32.827Z,2.50
2023-06-12T14:11:00.813Z,2.40
2023-06-12T14:13:30.196Z,2.40
2023-06-12T14:15:58.310Z,1.80
2023-06-12T14:18:26.199Z,2.50
2023-06-12T14:20:55.981Z,2.40
2023-06-12T14:23:24.371Z,2.30
2023-06-12T14:25:52.267Z,2.40
2023-06-12T14:28:20.565Z,2.20
2023-06-12T14:30:48.408Z,2.10
2023-06-12T14:33:17.590Z,2.10
2023-06-12T14:35:47.529Z,2.10
2023-06-12T14:38:15.553Z,2.10
2023-06-12T14:40:43.576Z,2.40
2023-06-12T14:43:11.695Z,2.00
2023-06-12T14:45:39.714Z,2.20
2023-06-12T14:48:07.713Z,2.00
2023-06-12T14:50:35.658Z,2.30
2023-06-12T14:53:03.548Z,2.20
2023-06-12T14:55:31.497Z,2.30
2023-06-12T14:57:59.425Z,2.40
2023-06-12T15:00:27.516Z,2.30
2023-06-12T15:02:55.924Z,2.00
2023-06-12T15:05:24.253Z,2.00
2023-06-12T15:07:52.602Z,2.10
2023-06-12T15:10:20.730Z,1.90
2023-06-12T15:13:03.962Z,2.70
2023-06-12T15:15:38.672Z,2.20
2023-06-12T15:18:07.425Z,2.40
2023-06-12T15:20:35.774Z,2.10
2023-06-12T15:23:04.006Z,1.70
2023-06-12T15:25:32.036Z,2.10
2023-06-12T15:27:59.929Z,2.00
2023-06-12T15:30:27.998Z,2.20
2023-06-12T15:32:56.962Z,2.50
2023-06-12T15:35:25.203Z,2.50
2023-06-12T15:37:53.043Z,2.60
2023-06-12T15:40:21.415Z,2.30
2023-06-12T15:42:49.465Z,2.30
2023-06-12T15:45:17.529Z,2.20
2023-06-12T15:47:45.480Z,2.40
2023-06-12T15:50:13.571Z,2.30
2023-06-12T15:52:41.540Z,2.00
2023-06-12T15:55:09.599Z,2.00
2023-06-12T15:57:37.854Z,1.90
2023-06-12T16:00:06.929Z,1.90
2023-06-12T16:02:35.752Z,2.00
2023-06-12T16:05:04.473Z,1.90
2023-06-12T16:07:32.764Z,1.90
2023-06-12T16:10:00.864Z,1.80
2023-06-12T16:12:28.805Z,2.00
2023-06-12T16:14:57.207Z,2.10
2023-06-12T16:17:25.744Z,1.90
2023-06-12T16:19:53.575Z,1.80
2023-06-12T16:22:21.665Z,1.70
2023-06-12T16:24:50.956Z,2.60
2023-06-12T16:27:19.232Z,1.70
2023-06-12T16:29:47.273Z,1.60
2023-06-12T16:32:15.381Z,1.50
2023-06-12T16:34:43.858Z,1.80
2023-06-12T16:37:11.925Z,1.90
2023-06-12T16:39:41.795Z,1.90
2023-06-12T16:42:09.859Z,1.60
2023-06-12T16:44:37.982Z,1.50
2023-06-12T16:47:07.379Z,1.70
2023-06-12T16:49:35.393Z,1.90
2023-06-12T16:52:03.751Z,1.90
2023-06-12T16:54:32.096Z,2.20
2023-06-12T16:57:00.508Z,2.00
2023-06-12T16:59:28.699Z,1.60
2023-06-12T17:01:56.616Z,1.80
2023-06-12T17:04:27.117Z,2.20
2023-06-12T17:06:56.345Z,1.80
2023-06-12T17:09:24.247Z,1.90
2023-06-12T17:11:52.611Z,2.00
2023-06-12T17:14:20.604Z,1.90
2023-06-12T17:16:48.709Z,2.00
2023-06-12T17:19:16.882Z,2.20
2023-06-12T17:21:46.727Z,1.90
2023-06-12T17:24:15.210Z,2.00
2023-06-12T17:26:46.696Z,1.60
2023-06-12T17:29:15.056Z,1.90
2023-06-12T17:31:44.440Z,2.30
2023-06-12T17:34:12.487Z,1.90
2023-06-12T17:36:41.615Z,1.90
2023-06-12T17:39:09.769Z,1.90
2023-06-12T17:41:41.533Z,2.00
2023-06-12T17:44:09.535Z,1.80
2023-06-12T17:46:37.594Z,1.90
2023-06-12T17:49:05.488Z,1.70
2023-06-12T17:51:33.466Z,1.90
2023-06-12T17:54:01.481Z,1.90
2023-06-12T17:56:29.465Z,1.60
2023-06-12T17:58:57.471Z,1.80
2023-06-12T18:01:25.459Z,1.70
2023-06-12T18:03:53.465Z,1.70
2023-06-12T18:06:22.024Z,1.70
2023-06-12T18:08:50.187Z,1.70
2023-06-12T18:11:18.404Z,2.50
2023-06-12T18:13:46.277Z,2.60
2023-06-12T18:16:14.250Z,1.70
2023-06-12T18:18:42.317Z,1.70
2023-06-12T18:21:10.322Z,2.50
2023-06-12T18:23:43.111Z,3.50
2023-06-12T18:26:11.372Z,2.20
2023-06-12T18:28:39.271Z,2.40
2023-06-12T18:31:09.777Z,3.70
2023-06-12T18:33:37.668Z,1.80
2023-06-12T18:36:07.526Z,3.00
2023-06-12T18:38:35.451Z,3.00
2023-06-12T18:41:03.428Z,2.00
2023-06-12T18:43:31.296Z,2.90
2023-06-12T18:45:59.612Z,2.10
2023-06-12T18:48:27.542Z,2.00
2023-06-12T18:50:58.132Z,1.90
2023-06-12T18:53:26.367Z,1.80
2023-06-12T18:55:54.304Z,2.00
2023-06-12T18:58:22.700Z,2.10
2023-06-12T19:00:50.854Z,2.30
2023-06-12T19:03:18.849Z,2.60
2023-06-12T19:06:03.886Z,2.50
2023-06-12T19:08:33.118Z,2.50
2023-06-12T19:11:01.254Z,2.80
2023-06-12T19:13:29.224Z,2.50
2023-06-12T19:15:57.393Z,2.40
2023-06-12T19:18:25.725Z,3.00
2023-06-12T19:21:01.999Z,2.40
2023-06-12T19:23:30.063Z,2.60
2023-06-12T19:25:58.929Z,2.50
2023-06-12T19:28:47.209Z,2.40
2023-06-12T19:31:16.050Z,2.70
2023-06-12T19:33:44.093Z,2.90
2023-06-12T19:36:11.971Z,2.60
2023-06-12T19:38:39.951Z,2.50
2023-06-12T19:41:07.884Z,2.60
2023-06-12T19:43:35.900Z,2.50
2023-06-12T19:46:03.939Z,2.70
2023-06-12T19:48:32.407Z,3.40
2023-06-12T19:51:00.480Z,2.90
2023-06-12T19:53:29.511Z,2.40
2023-06-12T19:55:57.329Z,2.70
2023-06-12T19:58:25.462Z,3.30
2023-06-12T20:00:53.542Z,2.70
2023-06-12T20:03:22.039Z,2.80
2023-06-12T20:05:49.998Z,3.10
2023-06-12T20:08:17.820Z,2.80
2023-06-12T20:10:45.730Z,2.80
2023-06-12T20:13:13.618Z,2.50
2023-06-12T20:15:41.436Z,2.70
2023-06-12T20:18:09.478Z,2.80
2023-06-12T20:20:37.598Z,2.40
2023-06-12T20:23:05.500Z,2.50
2023-06-12T20:25:33.741Z,2.70
2023-06-12T20:28:02.153Z,3.20
2023-06-12T20:30:30.814Z,2.50
2023-06-12T20:32:59.022Z,2.50
2023-06-12T20:35:27.267Z,2.40
2023-06-12T20:37:56.251Z,3.00
2023-06-12T20:40:24.367Z,2.50
2023-06-12T20:42:52.409Z,2.40
2023-06-12T20:45:20.349Z,2.60
2023-06-12T20:47:48.283Z,2.40
2023-06-12T20:50:16.431Z,2.50
2023-06-12T20:52:44.259Z,2.90
2023-06-12T20:55:12.398Z,2.40
2023-06-12T20:57:40.522Z,2.60
2023-06-12T21:00:10.666Z,2.70
2023-06-12T21:05:08.297Z,2.20
2023-06-12T21:07:36.502Z,2.30
2023-06-12T21:10:04.887Z,2.30
2023-06-12T21:12:32.988Z,2.40
2023-06-12T21:15:01.060Z,2.40
2023-06-12T21:17:30.875Z,2.40
2023-06-12T21:20:02.792Z,2.30
2023-06-12T21:22:44.753Z,2.10
2023-06-12T21:25:16.554Z,2.40
2023-06-12T21:27:44.788Z,2.40
2023-06-12T21:30:12.893Z,2.30
2023-06-12T21:32:41.813Z,2.40
2023-06-12T21:35:10.239Z,2.60
2023-06-12T21:37:38.102Z,2.50
2023-06-12T21:40:06.814Z,2.50
2023-06-12T21:42:34.912Z,2.40
2023-06-12T21:45:02.998Z,2.50
2023-06-12T21:47:31.724Z,2.60
2023-06-12T21:49:59.632Z,2.50
2023-06-12T21:52:28.162Z,2.20
2023-06-12T21:54:56.278Z,2.40
2023-06-12T21:57:24.426Z,2.40
2023-06-12T21:59:52.276Z,2.60
2023-06-12T22:02:20.302Z,2.30
2023-06-12T22:04:48.224Z,2.60
2023-06-12T22:07:16.311Z,2.30
2023-06-12T22:09:44.126Z,2.00
2023-06-12T22:12:12.066Z,2.20
2023-06-12T22:14:40.786Z,2.30
2023-06-12T22:17:08.647Z,2.50
2023-06-12T22:19:36.575Z,2.30
2023-06-12T22:22:04.514Z,2.30
2023-06-12T22:24:32.349Z,2.50
2023-06-12T22:27:00.465Z,2.30
2023-06-12T22:29:28.372Z,2.20
2023-06-12T22:31:56.271Z,2.50
2023-06-12T22:34:24.674Z,2.40
2023-06-12T22:36:52.430Z,2.40
2023-06-12T22:39:20.374Z,2.20
2023-06-12T22:41:48.306Z,2.10
2023-06-12T22:44:16.119Z,2.00
2023-06-12T22:46:44.747Z,2.30
2023-06-12T22:49:18.853Z,2.20
2023-06-12T22:51:47.975Z,2.40
2023-06-12T22:54:15.934Z,2.20
2023-06-12T22:56:43.738Z,1.90
2023-06-12T22:59:11.659Z,2.20
2023-06-12T23:01:39.753Z,2.00
2023-06-12T23:04:07.731Z,2.20
2023-06-12T23:06:36.367Z,2.00
2023-06-12T23:09:05.263Z,2.00
2023-06-12T23:11:33.194Z,2.00
2023-06-12T23:14:01.166Z,1.80
2023-06-12T23:16:29.362Z,2.00
2023-06-12T23:18:57.687Z,2.10
2023-06-12T23:21:26.439Z,2.10
2023-06-12T23:23:58.674Z,2.20
2023-06-12T23:26:29.703Z,2.10
2023-06-12T23:28:57.851Z,2.10
2023-06-12T23:31:27.682Z,2.10
2023-06-12T23:33:56.168Z,2.10
2023-06-12T23:36:24.202Z,2.30
2023-06-12T23:38:52.118Z,2.10
2023-06-12T23:41:20.010Z,2.00
2023-06-12T23:43:47.953Z,2.10
2023-06-12T23:46:17.197Z,2.00
2023-06-12T23:48:45.348Z,1.90
2023-06-12T23:51:13.875Z,2.20
2023-06-12T23:53:41.728Z,2.00
2023-06-12T23:56:09.669Z,1.90
2023-06-12T23:58:37.595Z,2.00
